createdAt,value
2022-10-14T00:01:49.948Z,21.38
2022-10-14T00:04:16.635Z,21.30
2022-10-14T00:06:44.671Z,20.00
2022-10-14T00:09:11.446Z,20.65
2022-10-14T00:11:41.674Z,20.50
2022-10-14T00:14:16.121Z,22.10
2022-10-14T00:16:44.036Z,21.10
2022-10-14T00:21:39.526Z,21.48
2022-10-14T00:24:07.244Z,21.08
2022-10-14T00:26:37.640Z,23.35
2022-10-14T00:29:07.053Z,22.92
2022-10-14T00:31:34.098Z,22.08
2022-10-14T00:34:01.030Z,21.63
2022-10-14T00:36:28.030Z,22.00
2022-10-14T00:38:54.945Z,19.90
2022-10-14T00:41:31.462Z,20.63
2022-10-14T00:44:04.801Z,21.98
2022-10-14T00:46:37.579Z,22.42
2022-10-14T00:49:14.615Z,21.67
2022-10-14T00:51:44.496Z,22.50
2022-10-14T00:54:15.253Z,21.45
2022-10-14T00:56:44.119Z,20.23
2022-10-14T00:59:11.014Z,21.25
2022-10-14T01:01:37.776Z,21.80
2022-10-14T01:04:04.545Z,23.00
2022-10-14T01:06:42.436Z,21.63
2022-10-14T01:09:08.928Z,22.95
2022-10-14T01:12:23.392Z,21.65
2022-10-14T01:14:46.746Z,22.52
2022-10-14T01:17:36.446Z,21.98
2022-10-14T01:20:06.040Z,22.73
2022-10-14T01:22:56.966Z,22.30
2022-10-14T01:25:34.802Z,23.02
2022-10-14T01:28:24.320Z,22.45
2022-10-14T01:30:58.176Z,22.90
2022-10-14T01:33:28.586Z,21.45
2022-10-14T01:36:08.350Z,23.63
2022-10-14T01:38:38.868Z,22.27
2022-10-14T01:41:15.632Z,21.80
2022-10-14T01:43:45.597Z,21.38
2022-10-14T01:46:13.395Z,21.30
2022-10-14T01:48:48.127Z,20.20
2022-10-14T01:51:21.088Z,20.30
2022-10-14T01:53:54.915Z,17.80
2022-10-14T01:56:22.052Z,19.35
2022-10-14T01:58:49.682Z,18.30
2022-10-14T02:01:16.638Z,18.80
2022-10-14T02:03:45.899Z,18.13
2022-10-14T02:06:42.730Z,17.83
2022-10-14T02:09:20.672Z,16.92
2022-10-14T02:12:09.111Z,16.50
2022-10-14T02:14:50.842Z,15.73
2022-10-14T02:17:20.327Z,17.05
2022-10-14T02:19:46.904Z,17.83
2022-10-14T02:22:25.359Z,17.38
2022-10-14T02:24:56.196Z,15.20
2022-10-14T02:27:26.157Z,15.98
2022-10-14T02:29:55.031Z,14.65
2022-10-14T02:32:24.718Z,14.77
2022-10-14T02:34:54.799Z,14.60
2022-10-14T02:37:22.985Z,14.82
2022-10-14T02:39:59.166Z,16.02
2022-10-14T02:42:27.776Z,15.27
2022-10-14T02:44:56.408Z,15.50
2022-10-14T02:47:25.194Z,14.63
2022-10-14T02:49:52.307Z,14.60
2022-10-14T02:52:20.054Z,13.80
2022-10-14T02:54:47.062Z,13.68
2022-10-14T02:57:15.665Z,14.43
2022-10-14T02:59:42.345Z,13.93
2022-10-14T03:02:09.200Z,13.50
2022-10-14T03:04:36.371Z,14.02
2022-10-14T03:07:03.376Z,13.77
2022-10-14T03:09:29.973Z,12.67
2022-10-14T03:11:56.703Z,12.55
2022-10-14T03:14:23.252Z,13.63
2022-10-14T03:16:49.899Z,13.23
2022-10-14T03:19:16.504Z,12.77
2022-10-14T03:21:43.236Z,12.20
2022-10-14T03:24:09.971Z,12.20
2022-10-14T03:26:36.607Z,12.85
2022-10-14T03:29:03.325Z,11.77
2022-10-14T03:31:29.988Z,10.57
2022-10-14T03:33:56.589Z,11.30
2022-10-14T03:36:23.479Z,12.05
2022-10-14T03:38:50.136Z,12.40
2022-10-14T03:41:16.797Z,11.35
2022-10-14T03:43:43.369Z,11.05
2022-10-14T03:46:10.099Z,10.82
2022-10-14T03:48:36.651Z,10.80
2022-10-14T03:51:03.395Z,10.68
2022-10-14T03:53:29.973Z,10.63
2022-10-14T03:55:56.614Z,10.70
2022-10-14T03:58:23.141Z,11.27
2022-10-14T04:00:49.723Z,10.57
2022-10-14T04:03:16.310Z,10.82
2022-10-14T04:05:42.912Z,11.70
2022-10-14T04:08:09.631Z,11.65
2022-10-14T04:10:36.292Z,12.10
2022-10-14T04:13:03.024Z,12.35
2022-10-14T04:15:29.721Z,11.25
2022-10-14T04:17:56.366Z,11.52
2022-10-14T04:20:23.471Z,13.20
2022-10-14T04:22:50.369Z,11.33
2022-10-14T04:25:17.159Z,11.00
2022-10-14T04:27:43.756Z,12.35
2022-10-14T04:30:10.845Z,12.02
2022-10-14T04:32:37.440Z,11.70
2022-10-14T04:35:05.429Z,11.82
2022-10-14T04:37:32.118Z,11.68
2022-10-14T04:39:58.636Z,12.88
2022-10-14T04:42:25.413Z,12.07
2022-10-14T04:44:52.604Z,12.63
2022-10-14T04:47:19.565Z,12.57
2022-10-14T04:49:46.175Z,12.50
2022-10-14T04:52:12.770Z,27.58
2022-10-14T04:54:39.355Z,47.13
2022-10-14T04:57:06.051Z,13.00
2022-10-14T04:59:32.765Z,12.82
2022-10-14T05:01:59.400Z,12.10
2022-10-14T05:04:26.019Z,16.48
2022-10-14T05:06:52.716Z,18.88
2022-10-14T05:09:19.450Z,13.57
2022-10-14T05:11:46.010Z,11.73
2022-10-14T05:14:12.599Z,12.88
2022-10-14T05:16:39.514Z,17.85
2022-10-14T05:19:06.251Z,13.88
2022-10-14T05:21:32.983Z,13.15
2022-10-14T05:23:59.575Z,14.13
2022-10-14T05:26:26.405Z,12.88
2022-10-14T05:28:53.073Z,13.20
2022-10-14T05:31:19.718Z,12.43
2022-10-14T05:33:46.586Z,13.20
2022-10-14T05:36:13.186Z,12.60
2022-10-14T05:38:39.824Z,11.85
2022-10-14T05:41:06.502Z,11.32
2022-10-14T05:43:33.299Z,11.93
2022-10-14T05:46:00.532Z,10.70
2022-10-14T05:48:27.291Z,11.05
2022-10-14T05:50:54.256Z,10.43
2022-10-14T05:53:20.949Z,10.23
2022-10-14T05:55:47.631Z,10.60
2022-10-14T05:58:14.462Z,11.07
2022-10-14T06:00:41.015Z,10.48
2022-10-14T06:03:08.857Z,10.18
2022-10-14T06:08:03.570Z,9.93
2022-10-14T06:10:30.178Z,10.47
2022-10-14T06:12:57.227Z,8.98
2022-10-14T06:15:23.841Z,9.80
2022-10-14T06:17:50.373Z,9.63
2022-10-14T06:20:17.146Z,9.63
2022-10-14T06:22:43.877Z,9.45
2022-10-14T06:25:10.893Z,9.50
2022-10-14T06:27:37.562Z,9.33
2022-10-14T06:33:50.814Z,8.73
2022-10-14T06:36:17.798Z,7.75
2022-10-14T06:38:44.400Z,9.33
2022-10-14T06:41:12.286Z,5.32
2022-10-14T06:46:05.992Z,7.60
2022-10-14T06:48:32.714Z,7.93
2022-10-14T06:51:00.995Z,7.80
2022-10-14T06:53:28.280Z,8.45
2022-10-14T06:56:06.804Z,8.02
2022-10-14T06:58:36.651Z,8.02
2022-10-14T07:01:05.626Z,8.25
2022-10-14T07:03:36.503Z,8.45
2022-10-14T07:06:04.863Z,7.85
2022-10-14T07:08:31.533Z,8.23
2022-10-14T07:10:58.341Z,8.77
2022-10-14T07:13:24.997Z,8.68
2022-10-14T07:15:53.563Z,9.68
2022-10-14T07:18:20.408Z,8.32
2022-10-14T07:20:47.485Z,8.70
2022-10-14T07:23:14.100Z,8.17
2022-10-14T07:25:40.740Z,8.20
2022-10-14T07:28:07.357Z,9.02
2022-10-14T07:30:34.302Z,8.27
2022-10-14T07:33:01.176Z,8.97
2022-10-14T07:35:28.118Z,7.97
2022-10-14T07:37:55.342Z,9.50
2022-10-14T07:40:21.960Z,9.98
2022-10-14T07:42:48.727Z,8.50
2022-10-14T07:45:17.781Z,8.18
2022-10-14T07:47:47.672Z,13.95
2022-10-14T07:50:14.463Z,7.70
2022-10-14T07:52:41.172Z,7.90
2022-10-14T07:55:08.136Z,8.30
2022-10-14T07:57:34.748Z,8.83
2022-10-14T08:00:01.510Z,9.38
2022-10-14T08:02:29.143Z,9.40
2022-10-14T08:05:04.165Z,8.82
2022-10-14T08:07:40.030Z,8.75
2022-10-14T08:10:07.150Z,8.07
2022-10-14T08:12:33.750Z,7.40
2022-10-14T08:15:00.387Z,7.75
2022-10-14T08:17:27.937Z,7.13
2022-10-14T08:19:54.491Z,7.85
2022-10-14T08:22:21.242Z,7.88
2022-10-14T08:24:50.138Z,7.15
2022-10-14T08:27:16.963Z,8.77
2022-10-14T08:29:43.764Z,6.90
2022-10-14T08:32:10.352Z,7.50
2022-10-14T08:34:36.890Z,7.18
2022-10-14T08:37:03.624Z,7.18
2022-10-14T08:39:30.272Z,7.45
2022-10-14T08:42:08.201Z,7.50
2022-10-14T08:44:47.559Z,7.22
2022-10-14T08:47:23.012Z,7.30
2022-10-14T08:50:07.534Z,7.40
2022-10-14T08:52:39.461Z,7.80
2022-10-14T08:55:27.030Z,4.65
2022-10-14T09:00:33.632Z,7.60
2022-10-14T09:03:10.498Z,10.07
2022-10-14T09:05:39.603Z,7.10
2022-10-14T09:08:08.441Z,7.55
2022-10-14T09:10:39.618Z,8.82
2022-10-14T09:13:18.978Z,8.30
2022-10-14T09:15:50.402Z,7.65
2022-10-14T09:18:32.893Z,7.65
2022-10-14T09:21:01.108Z,8.10
2022-10-14T09:23:28.285Z,7.25
2022-10-14T09:26:19.333Z,7.25
2022-10-14T09:28:48.473Z,5.78
2022-10-14T09:31:15.188Z,7.35
2022-10-14T09:33:43.613Z,7.72
2022-10-14T09:36:19.417Z,6.70
2022-10-14T09:38:54.563Z,7.15
2022-10-14T09:41:28.114Z,6.65
2022-10-14T09:44:33.324Z,7.30
2022-10-14T09:47:03.585Z,6.93
2022-10-14T09:49:44.000Z,7.13
2022-10-14T09:52:25.044Z,6.55
2022-10-14T09:54:57.066Z,6.95
2022-10-14T09:57:25.287Z,5.60
2022-10-14T09:59:57.592Z,7.63
2022-10-14T10:02:42.202Z,7.07
2022-10-14T10:05:25.144Z,8.05
2022-10-14T10:08:14.840Z,6.95
2022-10-14T10:10:42.118Z,7.80
2022-10-14T10:13:22.696Z,6.60
2022-10-14T10:16:00.250Z,10.00
2022-10-14T10:21:06.816Z,6.05
2022-10-14T10:23:35.586Z,7.57
2022-10-14T10:26:17.074Z,8.20
2022-10-14T10:28:49.119Z,8.23
2022-10-14T10:34:34.535Z,6.97
2022-10-14T10:37:08.598Z,8.48
2022-10-14T10:40:10.781Z,9.25
2022-10-14T10:43:12.649Z,6.80
2022-10-14T10:45:58.011Z,8.90
2022-10-14T10:48:47.644Z,7.63
2022-10-14T10:51:23.577Z,8.73
2022-10-14T10:53:50.317Z,7.82
2022-10-14T10:56:28.670Z,9.73
2022-10-14T10:59:17.164Z,11.52
2022-10-14T11:01:56.909Z,8.98
2022-10-14T11:04:32.553Z,8.77
2022-10-14T11:07:45.441Z,8.40
2022-10-14T11:10:30.481Z,10.18
2022-10-14T11:13:04.549Z,10.18
2022-10-14T11:15:33.929Z,10.65
2022-10-14T11:18:07.904Z,9.38
2022-10-14T11:20:44.093Z,9.55
2022-10-14T11:23:34.887Z,8.55
2022-10-14T11:26:46.616Z,9.05
2022-10-14T11:29:50.823Z,9.85
2022-10-14T11:32:23.601Z,9.88
2022-10-14T11:35:10.607Z,10.73
2022-10-14T11:37:46.622Z,11.63
2022-10-14T11:41:01.464Z,11.68
2022-10-14T11:43:39.759Z,12.27
2022-10-14T11:46:17.147Z,10.80
2022-10-14T11:49:00.342Z,13.65
2022-10-14T11:51:48.673Z,11.48
2022-10-14T11:54:52.233Z,14.43
2022-10-14T11:57:42.314Z,12.88
2022-10-14T12:00:22.211Z,12.27
2022-10-14T12:03:25.987Z,13.77
2022-10-14T12:06:12.825Z,12.13
2022-10-14T12:09:02.644Z,13.17
2022-10-14T12:11:46.476Z,10.77
2022-10-14T12:14:30.687Z,12.57
2022-10-14T12:17:00.374Z,12.95
2022-10-14T12:19:28.919Z,13.73
2022-10-14T12:21:58.678Z,12.50
2022-10-14T12:24:31.463Z,11.82
2022-10-14T12:27:01.698Z,14.25
2022-10-14T12:29:32.858Z,13.55
2022-10-14T12:32:07.553Z,14.13
2022-10-14T12:34:42.421Z,12.32
2022-10-14T12:37:28.726Z,12.23
2022-10-14T12:40:04.034Z,12.55
2022-10-14T12:42:35.054Z,12.32
2022-10-14T12:45:14.580Z,11.20
2022-10-14T12:47:42.591Z,11.70
2022-10-14T12:50:15.055Z,13.20
2022-10-14T12:52:46.383Z,19.92
2022-10-14T12:55:22.284Z,12.70
2022-10-14T12:58:00.394Z,12.32
2022-10-14T13:00:26.938Z,12.18
2022-10-14T13:03:01.403Z,11.73
2022-10-14T13:05:40.406Z,10.05
2022-10-14T13:08:16.133Z,11.27
2022-10-14T13:10:59.059Z,11.52
2022-10-14T13:13:53.569Z,10.90
2022-10-14T13:16:26.123Z,17.52
2022-10-14T13:18:57.992Z,13.73
2022-10-14T13:21:36.755Z,11.55
2022-10-14T13:24:27.422Z,10.52
2022-10-14T13:26:54.058Z,20.77
2022-10-14T13:29:20.690Z,10.55
2022-10-14T13:32:11.193Z,10.85
2022-10-14T13:34:44.194Z,9.85
2022-10-14T13:37:32.166Z,10.52
2022-10-14T13:40:20.089Z,7.63
2022-10-14T13:42:52.181Z,9.15
2022-10-14T13:45:21.161Z,9.15
2022-10-14T13:47:49.028Z,8.90
2022-10-14T13:52:57.065Z,8.05
2022-10-14T13:55:25.549Z,8.90
2022-10-14T13:58:13.429Z,9.25
2022-10-14T14:00:50.746Z,8.65
2022-10-14T14:03:31.668Z,8.15
2022-10-14T14:05:59.744Z,8.85
2022-10-14T14:08:40.300Z,9.05
2022-10-14T14:11:17.624Z,8.85
2022-10-14T14:14:00.374Z,8.35
2022-10-14T14:16:32.089Z,9.07
2022-10-14T14:19:14.101Z,8.38
2022-10-14T14:21:40.862Z,9.02
2022-10-14T14:24:17.033Z,8.75
2022-10-14T14:26:44.332Z,9.13
2022-10-14T14:29:19.713Z,10.35
2022-10-14T14:32:05.566Z,10.05
2022-10-14T14:34:35.864Z,10.18
2022-10-14T14:37:23.513Z,10.38
2022-10-14T14:40:02.986Z,10.55
2022-10-14T14:42:36.178Z,10.60
2022-10-14T14:45:12.890Z,11.45
2022-10-14T14:47:41.136Z,11.02
2022-10-14T14:50:29.473Z,10.20
2022-10-14T14:53:02.944Z,9.82
2022-10-14T14:56:00.571Z,9.63
2022-10-14T14:58:38.014Z,24.10
2022-10-14T15:01:06.793Z,10.63
2022-10-14T15:04:12.925Z,14.68
2022-10-14T15:06:36.005Z,11.10
2022-10-14T15:09:14.039Z,10.00
2022-10-14T15:11:58.051Z,11.07
2022-10-14T15:14:32.949Z,43.97
2022-10-14T15:17:00.189Z,24.73
2022-10-14T15:19:37.295Z,11.52
2022-10-14T15:22:16.882Z,10.35
2022-10-14T15:25:02.254Z,11.77
2022-10-14T15:27:44.339Z,25.88
2022-10-14T15:30:27.796Z,11.40
2022-10-14T15:32:57.736Z,12.15
2022-10-14T15:35:25.158Z,13.27
2022-10-14T15:37:52.146Z,11.25
2022-10-14T15:40:20.228Z,10.73
2022-10-14T15:42:48.034Z,10.45
2022-10-14T15:45:16.079Z,11.07
2022-10-14T15:47:43.104Z,11.52
2022-10-14T15:50:20.099Z,10.83
2022-10-14T15:52:46.916Z,23.20
2022-10-14T15:55:17.543Z,13.50
2022-10-14T15:57:44.112Z,13.50
2022-10-14T16:00:11.013Z,13.60
2022-10-14T16:02:37.823Z,11.87
2022-10-14T16:05:20.900Z,11.07
2022-10-14T16:07:48.548Z,10.80
2022-10-14T16:10:19.084Z,11.05
2022-10-14T16:12:46.155Z,14.40
2022-10-14T16:15:28.233Z,12.95
2022-10-14T16:17:55.075Z,12.55
2022-10-14T16:20:22.438Z,10.70
2022-10-14T16:22:49.200Z,11.15
2022-10-14T16:25:22.121Z,12.35
2022-10-14T16:27:48.811Z,13.45
2022-10-14T16:30:15.443Z,10.75
2022-10-14T16:32:42.649Z,10.68
2022-10-14T16:35:10.194Z,10.55
2022-10-14T16:37:38.293Z,17.58
2022-10-14T16:40:05.983Z,13.40
2022-10-14T16:42:32.702Z,9.95
2022-10-14T16:44:59.276Z,10.45
2022-10-14T16:47:26.856Z,15.20
2022-10-14T16:49:53.656Z,11.55
2022-10-14T16:52:21.551Z,10.52
2022-10-14T16:54:48.404Z,11.88
2022-10-14T16:57:15.269Z,11.73
2022-10-14T16:59:42.076Z,28.63
2022-10-14T17:02:14.244Z,22.20
2022-10-14T17:04:42.202Z,18.42
2022-10-14T17:07:10.043Z,11.38
2022-10-14T17:12:07.963Z,10.47
2022-10-14T17:14:37.892Z,10.30
2022-10-14T17:17:05.108Z,9.68
2022-10-14T17:19:31.758Z,9.43
2022-10-14T17:21:59.712Z,10.30
2022-10-14T17:24:26.429Z,11.52
2022-10-14T17:26:53.253Z,9.95
2022-10-14T17:29:20.630Z,12.27
2022-10-14T17:31:47.423Z,10.77
2022-10-14T17:34:14.323Z,49.08
2022-10-14T17:36:41.849Z,14.13
2022-10-14T17:39:16.467Z,11.55
2022-10-14T17:41:48.225Z,13.13
2022-10-14T17:44:14.926Z,14.93
2022-10-14T17:46:41.466Z,11.38
2022-10-14T17:49:11.710Z,10.85
2022-10-14T17:51:39.281Z,9.95
2022-10-14T17:58:41.519Z,9.55
2022-10-14T18:01:16.153Z,11.52
2022-10-14T18:03:44.751Z,9.52
2022-10-14T18:06:24.002Z,9.50
2022-10-14T18:08:56.387Z,9.82
2022-10-14T18:11:24.151Z,9.68
2022-10-14T18:13:56.684Z,11.63
2022-10-14T18:16:33.460Z,9.43
2022-10-14T18:19:05.938Z,12.10
2022-10-14T18:21:35.429Z,30.83
2022-10-14T18:24:03.055Z,30.77
2022-10-14T18:26:29.695Z,10.60
2022-10-14T18:28:58.738Z,10.25
2022-10-14T18:31:28.025Z,9.93
2022-10-14T18:33:56.872Z,9.38
2022-10-14T18:36:26.472Z,8.52
2022-10-14T18:38:58.947Z,10.32
2022-10-14T18:41:28.035Z,9.25
2022-10-14T18:43:57.301Z,8.73
2022-10-14T18:46:29.398Z,8.40
2022-10-14T18:48:57.986Z,8.07
2022-10-14T18:51:30.110Z,10.07
2022-10-14T18:53:59.274Z,10.18
2022-10-14T18:56:28.655Z,9.52
2022-10-14T19:01:30.475Z,9.57
2022-10-14T19:03:57.530Z,9.77
2022-10-14T19:06:24.292Z,8.20
2022-10-14T19:08:52.123Z,13.02
2022-10-14T19:13:48.830Z,8.80
2022-10-14T19:16:21.912Z,8.23
2022-10-14T19:18:53.212Z,8.27
2022-10-14T19:21:22.344Z,8.02
2022-10-14T19:23:50.004Z,7.47
2022-10-14T19:26:22.264Z,7.78
2022-10-14T19:28:53.408Z,8.13
2022-10-14T19:31:22.886Z,8.85
2022-10-14T19:33:49.578Z,8.23
2022-10-14T19:36:18.217Z,8.32
2022-10-14T19:38:52.326Z,7.22
2022-10-14T19:41:19.010Z,7.20
2022-10-14T19:43:45.600Z,7.57
2022-10-14T19:46:14.194Z,7.68
2022-10-14T19:48:41.185Z,7.75
2022-10-14T19:51:11.712Z,7.37
2022-10-14T19:53:39.485Z,9.35
2022-10-14T19:56:08.626Z,6.95
2022-10-14T19:58:38.608Z,7.97
2022-10-14T20:01:07.664Z,8.23
2022-10-14T20:03:34.717Z,7.78
2022-10-14T20:06:02.134Z,8.00
2022-10-14T20:08:29.152Z,7.30
2022-10-14T20:10:56.183Z,7.73
2022-10-14T20:13:22.999Z,9.07
2022-10-14T20:15:54.732Z,8.10
2022-10-14T20:18:21.739Z,7.63
2022-10-14T20:20:49.494Z,7.43
2022-10-14T20:23:19.866Z,6.90
2022-10-14T20:25:47.441Z,7.97
2022-10-14T20:28:14.458Z,9.70
2022-10-14T20:30:42.705Z,8.07
2022-10-14T20:33:10.000Z,7.82
2022-10-14T20:35:36.957Z,8.88
2022-10-14T20:38:07.113Z,9.03
2022-10-14T20:40:40.672Z,12.48
2022-10-14T20:43:07.751Z,9.77
2022-10-14T20:45:34.655Z,11.00
2022-10-14T20:48:01.653Z,9.57
2022-10-14T20:50:28.299Z,9.87
2022-10-14T20:52:54.847Z,9.30
2022-10-14T20:55:21.606Z,11.30
2022-10-14T20:57:48.234Z,11.15
2022-10-14T21:00:15.163Z,10.48
2022-10-14T21:02:44.796Z,11.47
2022-10-14T21:05:11.420Z,10.25
2022-10-14T21:07:38.061Z,9.55
2022-10-14T21:10:04.867Z,8.50
2022-10-14T21:12:31.434Z,9.15
2022-10-14T21:14:58.026Z,7.78
2022-10-14T21:17:24.695Z,7.47
2022-10-14T21:19:51.386Z,8.35
2022-10-14T21:22:17.977Z,7.68
2022-10-14T21:24:44.574Z,7.63
2022-10-14T21:27:11.259Z,7.55
2022-10-14T21:29:38.042Z,7.90
2022-10-14T21:32:05.102Z,7.45
2022-10-14T21:34:31.761Z,7.17
2022-10-14T21:36:58.857Z,6.97
2022-10-14T21:39:25.517Z,7.10
2022-10-14T21:41:52.484Z,7.43
2022-10-14T21:44:20.946Z,7.17
2022-10-14T21:46:48.748Z,8.52
2022-10-14T21:51:42.342Z,7.50
2022-10-14T21:54:12.419Z,6.13
2022-10-14T21:56:39.546Z,6.72
2022-10-14T21:59:06.883Z,7.17
2022-10-14T22:01:33.545Z,7.55
2022-10-14T22:04:05.052Z,7.63
2022-10-14T22:06:35.836Z,7.25
2022-10-14T22:09:05.434Z,6.75
2022-10-14T22:11:35.443Z,7.53
2022-10-14T22:14:04.425Z,7.03
2022-10-14T22:16:31.670Z,6.35
2022-10-14T22:19:00.727Z,7.20
2022-10-14T22:21:28.760Z,7.00
2022-10-14T22:23:55.483Z,7.07
2022-10-14T22:26:24.980Z,13.43
2022-10-14T22:29:04.469Z,7.28
2022-10-14T22:31:35.784Z,8.27
2022-10-14T22:34:04.900Z,8.63
2022-10-14T22:36:33.002Z,7.10
2022-10-14T22:39:01.256Z,7.80
2022-10-14T22:41:33.904Z,8.77
2022-10-14T22:44:03.227Z,8.02
2022-10-14T22:48:58.705Z,7.30
2022-10-14T22:54:14.266Z,8.07
2022-10-14T22:56:40.994Z,7.40
2022-10-14T22:59:11.504Z,6.57
2022-10-14T23:01:40.334Z,6.85
2022-10-14T23:04:07.077Z,7.10
2022-10-14T23:06:36.895Z,6.95
2022-10-14T23:09:04.768Z,5.95
2022-10-14T23:14:00.314Z,7.45
2022-10-14T23:16:30.066Z,6.65
2022-10-14T23:18:58.687Z,7.37
2022-10-14T23:21:28.797Z,6.95
2022-10-14T23:24:01.568Z,6.97
2022-10-14T23:26:36.200Z,6.95
2022-10-14T23:29:07.689Z,7.13
2022-10-14T23:31:36.092Z,7.72
2022-10-14T23:34:07.635Z,6.78
2022-10-14T23:36:51.894Z,7.20
2022-10-14T23:39:21.805Z,7.60
2022-10-14T23:41:53.610Z,7.82
2022-10-14T23:44:20.633Z,8.02
2022-10-14T23:47:00.048Z,7.83
2022-10-14T23:49:26.792Z,7.95
2022-10-14T23:51:54.282Z,7.50
2022-10-14T23:54:24.583Z,7.57
2022-10-14T23:56:52.879Z,7.20
